• Join FlightAware (Why Join?)
  • Login
  • US Flag 
02:11PM EDT


 

Airport Tracker/Info


-or-


 

Live Flight TrackerFlight Track Log ✈ UAL5911 ✈ 24-Apr-2013 ✈ KPIA - KORD

Flight Track Log - Related Links

Times and Time Zones

All times are in EDT time to prevent confusion due to time zone crossing. See the UAL5911 flight status page for this flight to view local times or setup timezone preferences in your user account.

Time Position Orientation Groundspeed Altitude Reporting Facility
EDT Latitude Longitude Course Direction KTS MPH feet Rate Location/Type
03:40PM 40.7331 -89.7381 357° North 220 253 4,700  Level Chicago Center
03:41PM 40.7972 -89.7158 15° North 237 273 7,200 2,460 Climbing Chicago Center
03:42PM 40.8664 -89.6914 15° North 251 289 9,800 1,860 Climbing Chicago Center
03:43PM 40.9114 -89.6333 North  Level FlightAware Approximate
03:43PM 40.9428 -89.6650 15° North 274 315 11,100  Level Chicago Center
03:44PM 40.9766 -89.6183 11° North  Level FlightAware Approximate
03:45PM 41.0487 -89.6000 North  Level FlightAware Approximate
03:45PM 41.0431 -89.5886 30° Northeast 349 402 11,100  Level Chicago Center
03:46PM 41.1047 -89.4756 54° Northeast 373 429 11,100  Level Chicago Center
03:47PM 41.1647 -89.3625 55° Northeast 374 430 11,100  Level Chicago Center
03:49PM 41.2822 -89.1417 55° Northeast 374 430 11,100  Level Chicago Center
03:50PM 41.3547 -89.0067 54° Northeast 373 429 11,100  Level Chicago Center
03:51PM 41.4139 -88.8928 55° Northeast 373 429 11,100 -60 Level Chicago Center
03:52PM 41.4758 -88.7764 55° Northeast 382 440 11,000 -60 Descending Chicago Center
03:53PM 41.5306 -88.6608 58° Northeast 372 428 11,000  Level Chicago Center
03:54PM 41.5803 -88.5475 60° Northeast 356 410 11,000 -300 Level Chicago Center
03:55PM 41.6458 -88.4469 49° Northeast 356 410 10,400 -540 Descending Chicago Center
03:56PM 41.7108 -88.3186 56° Northeast 348 400 10,000 -240 Descending Chicago Center
03:57PM 41.7669 -88.2083 56° Northeast 354 407 10,000 -540 Level Chicago Center
03:58PM 41.8122 -88.1164 57° Northeast 296 341 8,900 -1,260 Descending Chicago Center
03:59PM 41.8578 -88.0347 53° Northeast 278 320 7,400 -1,140 Descending Chicago Center
04:00PM 41.8833 -87.9667 63° Northeast 265 305 7,000 -300 Descending Chicago TRACON
04:01PM 41.8833 -87.8833 90° East 248 285 7,000 -240 Level Chicago TRACON
04:02PM 41.8833 -87.8000 90° East 210 242 6,600 -1,080 Descending Chicago TRACON
04:03PM 41.8833 -87.7167 90° East 206 237 4,900 -1,260 Descending Chicago TRACON
04:04PM 41.9167 -87.6667 48° Northeast 201 231 4,000 -660 Descending Chicago TRACON
04:04PM 41.9500 -87.6833 340° North 187 215 3,700 -720 Descending Chicago TRACON
04:06PM 41.9667 -87.7500 289° West 176 203 2,700 -900 Descending Chicago TRACON
04:06PM 41.9667 -87.8000 270° West 151 174 2,000 -780 Descending Chicago TRACON